sensor_id;sensor_type;location;lat;lon;timestamp;P1;durP1;ratioP1;P2;durP2;ratioP2
21192;SDS011;10754;51.106;7.164;2022-12-07T00:00:54;12.47;;;11.27;;
21192;SDS011;10754;51.106;7.164;2022-12-07T00:03:20;11.63;;;10.50;;
21192;SDS011;10754;51.106;7.164;2022-12-07T00:05:46;12.80;;;11.43;;
21192;SDS011;10754;51.106;7.164;2022-12-07T00:08:12;13.70;;;10.77;;
21192;SDS011;10754;51.106;7.164;2022-12-07T00:10:37;13.90;;;12.40;;
21192;SDS011;10754;51.106;7.164;2022-12-07T00:13:03;12.53;;;11.33;;
21192;SDS011;10754;51.106;7.164;2022-12-07T00:15:28;12.93;;;11.23;;
21192;SDS011;10754;51.106;7.164;2022-12-07T00:17:54;16.37;;;11.70;;
21192;SDS011;10754;51.106;7.164;2022-12-07T00:20:19;12.63;;;11.43;;
21192;SDS011;10754;51.106;7.164;2022-12-07T00:22:44;12.73;;;11.47;;
21192;SDS011;10754;51.106;7.164;2022-12-07T00:25:10;12.57;;;11.53;;
21192;SDS011;10754;51.106;7.164;2022-12-07T00:27:35;12.83;;;11.53;;
21192;SDS011;10754;51.106;7.164;2022-12-07T00:30:01;12.23;;;11.13;;
21192;SDS011;10754;51.106;7.164;2022-12-07T00:32:26;12.33;;;11.13;;
21192;SDS011;10754;51.106;7.164;2022-12-07T00:34:52;12.63;;;11.43;;
21192;SDS011;10754;51.106;7.164;2022-12-07T00:37:17;13.63;;;11.77;;
21192;SDS011;10754;51.106;7.164;2022-12-07T00:39:46;12.27;;;10.70;;
21192;SDS011;10754;51.106;7.164;2022-12-07T00:42:11;12.60;;;11.30;;
21192;SDS011;10754;51.106;7.164;2022-12-07T00:44:37;12.97;;;11.77;;
21192;SDS011;10754;51.106;7.164;2022-12-07T00:47:02;14.47;;;11.13;;
21192;SDS011;10754;51.106;7.164;2022-12-07T00:49:28;12.17;;;11.00;;
21192;SDS011;10754;51.106;7.164;2022-12-07T00:51:53;11.47;;;10.30;;
21192;SDS011;10754;51.106;7.164;2022-12-07T00:54:19;11.80;;;10.80;;
21192;SDS011;10754;51.106;7.164;2022-12-07T00:56:44;12.40;;;11.23;;
21192;SDS011;10754;51.106;7.164;2022-12-07T00:59:11;12.90;;;11.17;;
21192;SDS011;10754;51.106;7.164;2022-12-07T01:01:39;12.23;;;11.13;;
21192;SDS011;10754;51.106;7.164;2022-12-07T01:04:05;12.20;;;11.00;;
21192;SDS011;10754;51.106;7.164;2022-12-07T01:06:31;13.10;;;11.90;;
21192;SDS011;10754;51.106;7.164;2022-12-07T01:08:57;11.43;;;10.33;;
21192;SDS011;10754;51.106;7.164;2022-12-07T01:11:24;12.77;;;11.47;;
21192;SDS011;10754;51.106;7.164;2022-12-07T01:13:51;12.90;;;11.70;;
21192;SDS011;10754;51.106;7.164;2022-12-07T01:16:19;12.10;;;10.90;;
21192;SDS011;10754;51.106;7.164;2022-12-07T01:18:46;12.93;;;11.63;;
21192;SDS011;10754;51.106;7.164;2022-12-07T01:21:18;11.20;;;10.10;;
21192;SDS011;10754;51.106;7.164;2022-12-07T01:23:46;12.20;;;10.97;;
21192;SDS011;10754;51.106;7.164;2022-12-07T01:26:12;12.37;;;11.20;;
21192;SDS011;10754;51.106;7.164;2022-12-07T01:28:40;12.13;;;10.93;;
21192;SDS011;10754;51.106;7.164;2022-12-07T01:31:10;11.77;;;10.60;;
21192;SDS011;10754;51.106;7.164;2022-12-07T01:33:40;11.33;;;10.30;;
21192;SDS011;10754;51.106;7.164;2022-12-07T01:36:17;13.23;;;11.90;;
21192;SDS011;10754;51.106;7.164;2022-12-07T01:38:48;14.60;;;10.93;;
21192;SDS011;10754;51.106;7.164;2022-12-07T01:41:16;12.60;;;11.33;;
21192;SDS011;10754;51.106;7.164;2022-12-07T01:46:52;12.47;;;11.27;;
21192;SDS011;10754;51.106;7.164;2022-12-07T01:49:23;13.77;;;12.37;;
21192;SDS011;10754;51.106;7.164;2022-12-07T01:51:59;12.53;;;11.53;;
21192;SDS011;10754;51.106;7.164;2022-12-07T01:54:43;12.13;;;10.90;;
21192;SDS011;10754;51.106;7.164;2022-12-07T01:57:10;12.23;;;10.93;;
21192;SDS011;10754;51.106;7.164;2022-12-07T01:59:39;12.70;;;11.50;;
21192;SDS011;10754;51.106;7.164;2022-12-07T02:02:07;13.83;;;12.20;;
21192;SDS011;10754;51.106;7.164;2022-12-07T02:04:39;12.80;;;11.50;;
21192;SDS011;10754;51.106;7.164;2022-12-07T02:07:04;13.70;;;12.43;;
21192;SDS011;10754;51.106;7.164;2022-12-07T02:09:30;13.40;;;12.10;;
21192;SDS011;10754;51.106;7.164;2022-12-07T02:11:56;13.43;;;12.17;;
21192;SDS011;10754;51.106;7.164;2022-12-07T02:14:22;13.60;;;12.20;;
21192;SDS011;10754;51.106;7.164;2022-12-07T02:16:51;13.57;;;12.23;;
21192;SDS011;10754;51.106;7.164;2022-12-07T02:25:18;12.80;;;11.60;;
21192;SDS011;10754;51.106;7.164;2022-12-07T02:31:08;14.63;;;13.10;;
21192;SDS011;10754;51.106;7.164;2022-12-07T02:33:43;13.40;;;12.07;;
21192;SDS011;10754;51.106;7.164;2022-12-07T02:36:15;14.17;;;12.67;;
21192;SDS011;10754;51.106;7.164;2022-12-07T02:38:48;15.63;;;13.50;;
21192;SDS011;10754;51.106;7.164;2022-12-07T02:41:47;15.20;;;13.73;;
21192;SDS011;10754;51.106;7.164;2022-12-07T02:44:27;13.83;;;12.53;;
21192;SDS011;10754;51.106;7.164;2022-12-07T02:46:56;13.87;;;12.57;;
21192;SDS011;10754;51.106;7.164;2022-12-07T02:49:28;13.97;;;12.57;;
21192;SDS011;10754;51.106;7.164;2022-12-07T02:51:54;15.07;;;13.67;;
21192;SDS011;10754;51.106;7.164;2022-12-07T02:54:20;15.60;;;14.10;;
21192;SDS011;10754;51.106;7.164;2022-12-07T03:00:00;15.13;;;13.70;;
21192;SDS011;10754;51.106;7.164;2022-12-07T03:02:35;14.20;;;12.87;;
21192;SDS011;10754;51.106;7.164;2022-12-07T03:07:51;14.73;;;13.33;;
21192;SDS011;10754;51.106;7.164;2022-12-07T03:10:34;15.20;;;13.67;;
21192;SDS011;10754;51.106;7.164;2022-12-07T03:13:24;14.57;;;13.17;;
21192;SDS011;10754;51.106;7.164;2022-12-07T03:18:50;14.37;;;13.03;;
21192;SDS011;10754;51.106;7.164;2022-12-07T03:21:21;14.30;;;13.00;;
21192;SDS011;10754;51.106;7.164;2022-12-07T03:23:53;14.40;;;13.07;;
21192;SDS011;10754;51.106;7.164;2022-12-07T03:26:26;15.60;;;13.90;;
21192;SDS011;10754;51.106;7.164;2022-12-07T03:28:59;15.27;;;13.77;;
21192;SDS011;10754;51.106;7.164;2022-12-07T03:31:31;15.70;;;13.67;;
21192;SDS011;10754;51.106;7.164;2022-12-07T03:36:39;14.60;;;13.20;;
21192;SDS011;10754;51.106;7.164;2022-12-07T03:41:47;14.80;;;13.40;;
21192;SDS011;10754;51.106;7.164;2022-12-07T03:44:14;15.07;;;13.67;;
21192;SDS011;10754;51.106;7.164;2022-12-07T03:54:49;14.20;;;12.80;;
21192;SDS011;10754;51.106;7.164;2022-12-07T03:57:20;13.93;;;12.63;;
21192;SDS011;10754;51.106;7.164;2022-12-07T03:59:48;13.70;;;12.50;;
21192;SDS011;10754;51.106;7.164;2022-12-07T04:02:15;13.13;;;12.03;;
21192;SDS011;10754;51.106;7.164;2022-12-07T04:04:41;13.13;;;11.80;;
21192;SDS011;10754;51.106;7.164;2022-12-07T04:07:08;13.30;;;12.10;;
21192;SDS011;10754;51.106;7.164;2022-12-07T04:09:34;13.93;;;12.63;;
21192;SDS011;10754;51.106;7.164;2022-12-07T04:11:59;13.53;;;12.33;;
21192;SDS011;10754;51.106;7.164;2022-12-07T04:14:25;12.53;;;11.37;;
21192;SDS011;10754;51.106;7.164;2022-12-07T04:16:55;12.77;;;11.47;;
21192;SDS011;10754;51.106;7.164;2022-12-07T04:19:22;13.10;;;11.53;;
21192;SDS011;10754;51.106;7.164;2022-12-07T04:21:49;13.50;;;12.10;;
21192;SDS011;10754;51.106;7.164;2022-12-07T04:24:15;12.60;;;11.30;;
21192;SDS011;10754;51.106;7.164;2022-12-07T04:26:41;12.23;;;10.97;;
21192;SDS011;10754;51.106;7.164;2022-12-07T04:29:07;12.87;;;11.67;;
21192;SDS011;10754;51.106;7.164;2022-12-07T04:31:34;14.17;;;12.37;;
21192;SDS011;10754;51.106;7.164;2022-12-07T04:33:59;12.73;;;11.43;;
21192;SDS011;10754;51.106;7.164;2022-12-07T04:36:25;13.03;;;11.77;;
21192;SDS011;10754;51.106;7.164;2022-12-07T04:38:52;13.33;;;12.07;;
21192;SDS011;10754;51.106;7.164;2022-12-07T04:41:19;12.57;;;11.27;;
21192;SDS011;10754;51.106;7.164;2022-12-07T04:43:51;12.23;;;11.03;;
21192;SDS011;10754;51.106;7.164;2022-12-07T04:46:18;11.83;;;10.73;;
21192;SDS011;10754;51.106;7.164;2022-12-07T04:48:44;12.57;;;11.43;;
21192;SDS011;10754;51.106;7.164;2022-12-07T04:51:09;11.63;;;10.60;;
21192;SDS011;10754;51.106;7.164;2022-12-07T04:53:35;12.10;;;11.00;;
21192;SDS011;10754;51.106;7.164;2022-12-07T04:56:00;11.57;;;10.37;;
21192;SDS011;10754;51.106;7.164;2022-12-07T04:58:26;12.00;;;10.80;;
21192;SDS011;10754;51.106;7.164;2022-12-07T05:00:55;11.30;;;10.20;;
21192;SDS011;10754;51.106;7.164;2022-12-07T05:03:20;10.70;;;9.70;;
21192;SDS011;10754;51.106;7.164;2022-12-07T05:05:46;11.17;;;10.07;;
21192;SDS011;10754;51.106;7.164;2022-12-07T05:08:11;10.43;;;9.53;;
21192;SDS011;10754;51.106;7.164;2022-12-07T05:10:37;10.10;;;9.20;;
21192;SDS011;10754;51.106;7.164;2022-12-07T05:13:02;11.17;;;10.10;;
21192;SDS011;10754;51.106;7.164;2022-12-07T05:15:28;10.40;;;9.43;;
21192;SDS011;10754;51.106;7.164;2022-12-07T05:17:53;9.90;;;9.00;;
21192;SDS011;10754;51.106;7.164;2022-12-07T05:20:19;10.57;;;9.57;;
21192;SDS011;10754;51.106;7.164;2022-12-07T05:22:45;9.90;;;9.03;;
21192;SDS011;10754;51.106;7.164;2022-12-07T05:25:10;9.27;;;8.37;;
21192;SDS011;10754;51.106;7.164;2022-12-07T05:27:36;10.13;;;9.13;;
21192;SDS011;10754;51.106;7.164;2022-12-07T05:30:02;9.83;;;8.97;;
21192;SDS011;10754;51.106;7.164;2022-12-07T05:32:28;8.17;;;7.53;;
21192;SDS011;10754;51.106;7.164;2022-12-07T05:34:53;8.97;;;8.07;;
21192;SDS011;10754;51.106;7.164;2022-12-07T05:37:19;8.67;;;7.77;;
21192;SDS011;10754;51.106;7.164;2022-12-07T05:39:45;8.23;;;7.53;;
21192;SDS011;10754;51.106;7.164;2022-12-07T05:42:10;9.10;;;8.30;;
21192;SDS011;10754;51.106;7.164;2022-12-07T05:44:43;8.97;;;8.13;;
21192;SDS011;10754;51.106;7.164;2022-12-07T05:47:10;9.87;;;8.53;;
21192;SDS011;10754;51.106;7.164;2022-12-07T05:49:37;9.03;;;8.13;;
21192;SDS011;10754;51.106;7.164;2022-12-07T05:52:02;9.30;;;8.47;;
21192;SDS011;10754;51.106;7.164;2022-12-07T05:54:30;8.97;;;8.07;;
21192;SDS011;10754;51.106;7.164;2022-12-07T05:56:55;8.83;;;7.87;;
21192;SDS011;10754;51.106;7.164;2022-12-07T05:59:22;9.50;;;8.60;;
21192;SDS011;10754;51.106;7.164;2022-12-07T06:01:50;9.90;;;8.07;;
21192;SDS011;10754;51.106;7.164;2022-12-07T06:04:20;8.93;;;8.13;;
21192;SDS011;10754;51.106;7.164;2022-12-07T06:06:47;9.43;;;8.53;;
21192;SDS011;10754;51.106;7.164;2022-12-07T06:09:13;9.40;;;8.40;;
21192;SDS011;10754;51.106;7.164;2022-12-07T06:11:39;8.90;;;8.10;;
21192;SDS011;10754;51.106;7.164;2022-12-07T06:14:24;9.07;;;8.17;;
21192;SDS011;10754;51.106;7.164;2022-12-07T06:16:49;9.90;;;8.70;;
21192;SDS011;10754;51.106;7.164;2022-12-07T06:19:15;9.17;;;8.27;;
21192;SDS011;10754;51.106;7.164;2022-12-07T06:21:41;8.53;;;7.63;;
21192;SDS011;10754;51.106;7.164;2022-12-07T06:24:08;8.23;;;7.50;;
21192;SDS011;10754;51.106;7.164;2022-12-07T06:26:36;8.73;;;7.90;;
21192;SDS011;10754;51.106;7.164;2022-12-07T06:29:01;8.37;;;7.53;;
21192;SDS011;10754;51.106;7.164;2022-12-07T06:31:27;8.50;;;7.57;;
21192;SDS011;10754;51.106;7.164;2022-12-07T06:33:59;8.33;;;7.53;;
21192;SDS011;10754;51.106;7.164;2022-12-07T06:36:26;8.80;;;8.00;;
21192;SDS011;10754;51.106;7.164;2022-12-07T06:38:52;8.83;;;8.03;;
21192;SDS011;10754;51.106;7.164;2022-12-07T06:41:18;9.17;;;7.70;;
21192;SDS011;10754;51.106;7.164;2022-12-07T06:43:43;8.13;;;7.33;;
21192;SDS011;10754;51.106;7.164;2022-12-07T06:46:09;7.97;;;7.27;;
21192;SDS011;10754;51.106;7.164;2022-12-07T06:48:35;7.83;;;7.10;;
21192;SDS011;10754;51.106;7.164;2022-12-07T06:51:00;8.50;;;7.57;;
21192;SDS011;10754;51.106;7.164;2022-12-07T06:53:28;7.60;;;6.73;;
21192;SDS011;10754;51.106;7.164;2022-12-07T06:55:53;7.90;;;7.10;;
21192;SDS011;10754;51.106;7.164;2022-12-07T06:58:19;8.07;;;7.23;;
21192;SDS011;10754;51.106;7.164;2022-12-07T07:00:45;8.33;;;7.30;;
21192;SDS011;10754;51.106;7.164;2022-12-07T07:03:10;8.17;;;6.90;;
21192;SDS011;10754;51.106;7.164;2022-12-07T07:05:36;7.20;;;6.57;;
21192;SDS011;10754;51.106;7.164;2022-12-07T07:08:02;7.47;;;6.77;;
21192;SDS011;10754;51.106;7.164;2022-12-07T07:10:28;8.17;;;7.37;;
21192;SDS011;10754;51.106;7.164;2022-12-07T07:12:56;7.60;;;6.90;;
21192;SDS011;10754;51.106;7.164;2022-12-07T07:15:22;8.13;;;7.37;;
21192;SDS011;10754;51.106;7.164;2022-12-07T07:17:47;8.60;;;7.63;;
21192;SDS011;10754;51.106;7.164;2022-12-07T07:20:13;8.77;;;8.00;;
21192;SDS011;10754;51.106;7.164;2022-12-07T07:22:38;8.80;;;8.10;;
21192;SDS011;10754;51.106;7.164;2022-12-07T07:25:04;8.53;;;7.63;;
21192;SDS011;10754;51.106;7.164;2022-12-07T07:27:30;10.23;;;8.10;;
21192;SDS011;10754;51.106;7.164;2022-12-07T07:29:56;8.70;;;7.90;;
21192;SDS011;10754;51.106;7.164;2022-12-07T07:32:21;8.33;;;7.53;;
21192;SDS011;10754;51.106;7.164;2022-12-07T07:34:47;10.07;;;8.20;;
21192;SDS011;10754;51.106;7.164;2022-12-07T07:37:13;8.17;;;7.37;;
21192;SDS011;10754;51.106;7.164;2022-12-07T07:39:38;9.47;;;7.47;;
21192;SDS011;10754;51.106;7.164;2022-12-07T07:42:04;8.27;;;7.50;;
21192;SDS011;10754;51.106;7.164;2022-12-07T07:44:30;9.67;;;7.73;;
21192;SDS011;10754;51.106;7.164;2022-12-07T07:46:56;8.57;;;7.83;;
21192;SDS011;10754;51.106;7.164;2022-12-07T07:49:21;9.17;;;8.30;;
21192;SDS011;10754;51.106;7.164;2022-12-07T07:51:47;8.67;;;7.97;;
21192;SDS011;10754;51.106;7.164;2022-12-07T07:54:12;8.30;;;7.50;;
21192;SDS011;10754;51.106;7.164;2022-12-07T07:56:38;9.87;;;8.97;;
21192;SDS011;10754;51.106;7.164;2022-12-07T07:59:03;9.60;;;8.70;;
21192;SDS011;10754;51.106;7.164;2022-12-07T08:01:29;9.00;;;8.20;;
21192;SDS011;10754;51.106;7.164;2022-12-07T08:03:54;9.43;;;8.43;;
21192;SDS011;10754;51.106;7.164;2022-12-07T08:06:20;9.17;;;8.17;;
21192;SDS011;10754;51.106;7.164;2022-12-07T08:08:45;9.33;;;8.40;;
21192;SDS011;10754;51.106;7.164;2022-12-07T08:11:11;9.07;;;8.27;;
21192;SDS011;10754;51.106;7.164;2022-12-07T08:13:36;9.27;;;8.33;;
21192;SDS011;10754;51.106;7.164;2022-12-07T08:16:06;10.00;;;9.00;;
21192;SDS011;10754;51.106;7.164;2022-12-07T08:18:40;9.83;;;8.27;;
21192;SDS011;10754;51.106;7.164;2022-12-07T08:21:06;10.20;;;9.20;;
21192;SDS011;10754;51.106;7.164;2022-12-07T08:23:37;9.30;;;8.40;;
21192;SDS011;10754;51.106;7.164;2022-12-07T08:26:04;16.83;;;9.20;;
21192;SDS011;10754;51.106;7.164;2022-12-07T08:28:31;10.57;;;9.50;;
21192;SDS011;10754;51.106;7.164;2022-12-07T08:31:00;10.50;;;9.50;;
21192;SDS011;10754;51.106;7.164;2022-12-07T08:33:27;11.27;;;10.20;;
21192;SDS011;10754;51.106;7.164;2022-12-07T08:35:53;10.73;;;9.50;;
21192;SDS011;10754;51.106;7.164;2022-12-07T08:38:19;11.00;;;9.50;;
21192;SDS011;10754;51.106;7.164;2022-12-07T08:40:45;12.17;;;9.70;;
21192;SDS011;10754;51.106;7.164;2022-12-07T08:43:18;9.87;;;8.97;;
21192;SDS011;10754;51.106;7.164;2022-12-07T08:45:43;10.13;;;8.70;;
21192;SDS011;10754;51.106;7.164;2022-12-07T08:48:09;9.90;;;9.03;;
21192;SDS011;10754;51.106;7.164;2022-12-07T08:50:38;9.77;;;8.77;;
21192;SDS011;10754;51.106;7.164;2022-12-07T08:53:04;9.30;;;8.43;;
21192;SDS011;10754;51.106;7.164;2022-12-07T08:55:31;9.77;;;8.30;;
21192;SDS011;10754;51.106;7.164;2022-12-07T08:57:58;10.43;;;8.93;;
21192;SDS011;10754;51.106;7.164;2022-12-07T09:00:25;8.77;;;7.87;;
21192;SDS011;10754;51.106;7.164;2022-12-07T09:02:51;9.03;;;8.13;;
21192;SDS011;10754;51.106;7.164;2022-12-07T09:05:18;10.07;;;8.20;;
21192;SDS011;10754;51.106;7.164;2022-12-07T09:07:43;9.50;;;7.73;;
21192;SDS011;10754;51.106;7.164;2022-12-07T09:10:13;9.23;;;8.33;;
21192;SDS011;10754;51.106;7.164;2022-12-07T09:12:38;9.63;;;7.50;;
21192;SDS011;10754;51.106;7.164;2022-12-07T09:15:04;8.73;;;7.93;;
21192;SDS011;10754;51.106;7.164;2022-12-07T09:17:31;8.80;;;7.93;;
21192;SDS011;10754;51.106;7.164;2022-12-07T09:19:58;8.50;;;7.67;;
21192;SDS011;10754;51.106;7.164;2022-12-07T09:22:23;8.10;;;7.30;;
21192;SDS011;10754;51.106;7.164;2022-12-07T09:24:49;9.77;;;7.47;;
21192;SDS011;10754;51.106;7.164;2022-12-07T09:27:14;8.57;;;7.67;;
21192;SDS011;10754;51.106;7.164;2022-12-07T09:29:42;10.93;;;7.50;;
21192;SDS011;10754;51.106;7.164;2022-12-07T09:32:07;8.77;;;7.90;;
21192;SDS011;10754;51.106;7.164;2022-12-07T09:34:33;9.03;;;8.17;;
21192;SDS011;10754;51.106;7.164;2022-12-07T09:37:00;9.77;;;8.77;;
21192;SDS011;10754;51.106;7.164;2022-12-07T09:39:25;9.97;;;8.97;;
21192;SDS011;10754;51.106;7.164;2022-12-07T09:41:51;9.83;;;8.87;;
21192;SDS011;10754;51.106;7.164;2022-12-07T09:44:21;9.13;;;8.23;;
21192;SDS011;10754;51.106;7.164;2022-12-07T09:46:49;9.87;;;8.87;;
21192;SDS011;10754;51.106;7.164;2022-12-07T09:49:22;9.10;;;8.23;;
21192;SDS011;10754;51.106;7.164;2022-12-07T09:52:00;9.43;;;8.50;;
21192;SDS011;10754;51.106;7.164;2022-12-07T09:54:33;9.67;;;8.63;;
21192;SDS011;10754;51.106;7.164;2022-12-07T09:57:05;10.13;;;8.73;;
21192;SDS011;10754;51.106;7.164;2022-12-07T09:59:30;9.70;;;8.50;;
21192;SDS011;10754;51.106;7.164;2022-12-07T10:01:56;11.03;;;8.43;;
21192;SDS011;10754;51.106;7.164;2022-12-07T10:04:50;11.17;;;8.43;;
21192;SDS011;10754;51.106;7.164;2022-12-07T10:07:15;9.73;;;7.70;;
21192;SDS011;10754;51.106;7.164;2022-12-07T10:09:41;8.90;;;7.93;;
21192;SDS011;10754;51.106;7.164;2022-12-07T10:12:09;10.10;;;8.67;;
21192;SDS011;10754;51.106;7.164;2022-12-07T10:14:51;8.87;;;7.63;;
21192;SDS011;10754;51.106;7.164;2022-12-07T10:17:28;9.43;;;8.43;;
21192;SDS011;10754;51.106;7.164;2022-12-07T10:23:05;8.90;;;8.00;;
21192;SDS011;10754;51.106;7.164;2022-12-07T10:25:38;11.37;;;8.97;;
21192;SDS011;10754;51.106;7.164;2022-12-07T10:30:47;9.03;;;8.20;;
21192;SDS011;10754;51.106;7.164;2022-12-07T10:35:58;8.60;;;7.87;;
21192;SDS011;10754;51.106;7.164;2022-12-07T10:38:26;8.67;;;7.83;;
21192;SDS011;10754;51.106;7.164;2022-12-07T10:41:02;8.27;;;7.47;;
21192;SDS011;10754;51.106;7.164;2022-12-07T10:43:29;9.10;;;7.80;;
21192;SDS011;10754;51.106;7.164;2022-12-07T10:46:20;8.43;;;7.60;;
21192;SDS011;10754;51.106;7.164;2022-12-07T10:52:16;8.47;;;6.77;;
21192;SDS011;10754;51.106;7.164;2022-12-07T10:54:48;7.83;;;7.00;;
21192;SDS011;10754;51.106;7.164;2022-12-07T11:00:23;9.57;;;6.80;;
21192;SDS011;10754;51.106;7.164;2022-12-07T11:03:15;8.77;;;6.80;;
21192;SDS011;10754;51.106;7.164;2022-12-07T11:06:23;7.50;;;6.60;;
21192;SDS011;10754;51.106;7.164;2022-12-07T11:15:04;9.23;;;6.50;;
21192;SDS011;10754;51.106;7.164;2022-12-07T11:26:05;7.93;;;6.00;;
21192;SDS011;10754;51.106;7.164;2022-12-07T11:31:44;7.97;;;5.60;;
21192;SDS011;10754;51.106;7.164;2022-12-07T11:36:57;7.97;;;6.33;;
21192;SDS011;10754;51.106;7.164;2022-12-07T11:39:36;5.87;;;5.30;;
21192;SDS011;10754;51.106;7.164;2022-12-07T11:42:10;5.50;;;5.00;;
21192;SDS011;10754;51.106;7.164;2022-12-07T11:45:00;7.77;;;6.07;;
21192;SDS011;10754;51.106;7.164;2022-12-07T11:47:45;6.73;;;6.07;;
21192;SDS011;10754;51.106;7.164;2022-12-07T11:50:23;6.60;;;5.83;;
21192;SDS011;10754;51.106;7.164;2022-12-07T11:52:56;7.73;;;6.33;;
21192;SDS011;10754;51.106;7.164;2022-12-07T11:55:26;6.77;;;5.97;;
21192;SDS011;10754;51.106;7.164;2022-12-07T12:03:40;7.77;;;6.37;;
21192;SDS011;10754;51.106;7.164;2022-12-07T12:06:15;7.93;;;6.13;;
21192;SDS011;10754;51.106;7.164;2022-12-07T12:08:42;7.53;;;6.30;;
21192;SDS011;10754;51.106;7.164;2022-12-07T12:11:23;9.53;;;6.63;;
21192;SDS011;10754;51.106;7.164;2022-12-07T12:16:57;7.10;;;6.40;;
21192;SDS011;10754;51.106;7.164;2022-12-07T12:22:26;7.73;;;6.27;;
21192;SDS011;10754;51.106;7.164;2022-12-07T12:25:03;7.73;;;6.93;;
21192;SDS011;10754;51.106;7.164;2022-12-07T12:27:33;7.73;;;6.83;;
21192;SDS011;10754;51.106;7.164;2022-12-07T12:30:03;9.27;;;6.47;;
21192;SDS011;10754;51.106;7.164;2022-12-07T12:32:35;10.20;;;5.60;;
21192;SDS011;10754;51.106;7.164;2022-12-07T12:37:55;7.53;;;6.00;;
21192;SDS011;10754;51.106;7.164;2022-12-07T12:40:58;6.90;;;5.57;;
21192;SDS011;10754;51.106;7.164;2022-12-07T12:51:41;6.37;;;4.97;;
21192;SDS011;10754;51.106;7.164;2022-12-07T12:54:11;7.40;;;4.80;;
21192;SDS011;10754;51.106;7.164;2022-12-07T12:56:55;5.87;;;4.73;;
21192;SDS011;10754;51.106;7.164;2022-12-07T12:59:33;5.57;;;4.60;;
21192;SDS011;10754;51.106;7.164;2022-12-07T13:02:14;6.67;;;4.73;;
21192;SDS011;10754;51.106;7.164;2022-12-07T13:05:30;6.37;;;4.50;;
21192;SDS011;10754;51.106;7.164;2022-12-07T13:07:59;6.03;;;4.77;;
21192;SDS011;10754;51.106;7.164;2022-12-07T13:10:43;5.67;;;4.80;;
21192;SDS011;10754;51.106;7.164;2022-12-07T13:15:42;4.80;;;4.17;;
21192;SDS011;10754;51.106;7.164;2022-12-07T13:20:55;6.40;;;5.13;;
21192;SDS011;10754;51.106;7.164;2022-12-07T13:26:14;5.60;;;4.33;;
21192;SDS011;10754;51.106;7.164;2022-12-07T13:28:42;4.83;;;4.33;;
21192;SDS011;10754;51.106;7.164;2022-12-07T13:31:19;8.67;;;5.07;;
21192;SDS011;10754;51.106;7.164;2022-12-07T13:33:54;6.93;;;4.67;;
21192;SDS011;10754;51.106;7.164;2022-12-07T13:36:24;7.90;;;4.70;;
21192;SDS011;10754;51.106;7.164;2022-12-07T13:38:53;6.17;;;4.37;;
21192;SDS011;10754;51.106;7.164;2022-12-07T13:41:22;6.83;;;4.33;;
21192;SDS011;10754;51.106;7.164;2022-12-07T13:44:02;7.93;;;4.57;;
21192;SDS011;10754;51.106;7.164;2022-12-07T13:49:27;7.73;;;4.60;;
21192;SDS011;10754;51.106;7.164;2022-12-07T13:51:54;6.13;;;4.57;;
21192;SDS011;10754;51.106;7.164;2022-12-07T13:54:31;8.23;;;4.67;;
21192;SDS011;10754;51.106;7.164;2022-12-07T13:56:57;6.17;;;4.13;;
21192;SDS011;10754;51.106;7.164;2022-12-07T13:59:24;6.83;;;4.43;;
21192;SDS011;10754;51.106;7.164;2022-12-07T14:01:50;5.30;;;4.13;;
21192;SDS011;10754;51.106;7.164;2022-12-07T14:04:29;7.07;;;4.07;;
21192;SDS011;10754;51.106;7.164;2022-12-07T14:06:56;5.53;;;3.70;;
21192;SDS011;10754;51.106;7.164;2022-12-07T14:09:23;5.10;;;3.97;;
21192;SDS011;10754;51.106;7.164;2022-12-07T14:11:50;6.37;;;4.07;;
21192;SDS011;10754;51.106;7.164;2022-12-07T14:14:19;6.60;;;4.17;;
21192;SDS011;10754;51.106;7.164;2022-12-07T14:22:22;5.97;;;4.47;;
21192;SDS011;10754;51.106;7.164;2022-12-07T14:25:00;6.10;;;4.30;;
21192;SDS011;10754;51.106;7.164;2022-12-07T14:27:29;5.70;;;4.23;;
21192;SDS011;10754;51.106;7.164;2022-12-07T14:29:58;6.43;;;4.60;;
21192;SDS011;10754;51.106;7.164;2022-12-07T14:32:26;6.93;;;5.27;;
21192;SDS011;10754;51.106;7.164;2022-12-07T14:34:54;4.97;;;4.30;;
21192;SDS011;10754;51.106;7.164;2022-12-07T14:37:21;7.27;;;4.70;;
21192;SDS011;10754;51.106;7.164;2022-12-07T14:39:47;8.10;;;5.03;;
21192;SDS011;10754;51.106;7.164;2022-12-07T14:42:12;6.50;;;4.57;;
21192;SDS011;10754;51.106;7.164;2022-12-07T14:44:38;7.33;;;4.70;;
21192;SDS011;10754;51.106;7.164;2022-12-07T14:47:03;7.07;;;4.60;;
21192;SDS011;10754;51.106;7.164;2022-12-07T14:49:29;5.73;;;4.40;;
21192;SDS011;10754;51.106;7.164;2022-12-07T14:51:54;6.77;;;4.67;;
21192;SDS011;10754;51.106;7.164;2022-12-07T14:54:20;6.63;;;4.47;;
21192;SDS011;10754;51.106;7.164;2022-12-07T14:56:49;7.87;;;4.47;;
21192;SDS011;10754;51.106;7.164;2022-12-07T14:59:16;6.70;;;4.40;;
21192;SDS011;10754;51.106;7.164;2022-12-07T15:01:42;6.20;;;4.67;;
21192;SDS011;10754;51.106;7.164;2022-12-07T15:04:08;6.67;;;4.57;;
21192;SDS011;10754;51.106;7.164;2022-12-07T15:06:34;7.03;;;4.33;;
21192;SDS011;10754;51.106;7.164;2022-12-07T15:09:00;6.33;;;4.03;;
21192;SDS011;10754;51.106;7.164;2022-12-07T15:11:25;6.80;;;4.53;;
21192;SDS011;10754;51.106;7.164;2022-12-07T15:13:51;6.13;;;4.57;;
21192;SDS011;10754;51.106;7.164;2022-12-07T15:16:38;6.40;;;4.70;;
21192;SDS011;10754;51.106;7.164;2022-12-07T15:19:05;6.37;;;4.70;;
21192;SDS011;10754;51.106;7.164;2022-12-07T15:21:35;10.07;;;4.67;;
21192;SDS011;10754;51.106;7.164;2022-12-07T15:24:01;6.37;;;4.70;;
21192;SDS011;10754;51.106;7.164;2022-12-07T15:26:26;6.70;;;5.07;;
21192;SDS011;10754;51.106;7.164;2022-12-07T15:28:52;5.63;;;4.80;;
21192;SDS011;10754;51.106;7.164;2022-12-07T15:31:19;5.67;;;4.40;;
21192;SDS011;10754;51.106;7.164;2022-12-07T15:33:44;6.07;;;4.40;;
21192;SDS011;10754;51.106;7.164;2022-12-07T15:36:20;9.03;;;4.40;;
21192;SDS011;10754;51.106;7.164;2022-12-07T15:38:48;5.00;;;4.50;;
21192;SDS011;10754;51.106;7.164;2022-12-07T15:41:14;7.80;;;5.30;;
21192;SDS011;10754;51.106;7.164;2022-12-07T15:43:40;6.20;;;4.63;;
21192;SDS011;10754;51.106;7.164;2022-12-07T15:46:28;7.43;;;4.90;;
21192;SDS011;10754;51.106;7.164;2022-12-07T15:48:55;7.17;;;5.30;;
21192;SDS011;10754;51.106;7.164;2022-12-07T15:51:21;6.77;;;4.43;;
21192;SDS011;10754;51.106;7.164;2022-12-07T15:53:46;5.80;;;4.43;;
21192;SDS011;10754;51.106;7.164;2022-12-07T15:56:12;6.03;;;4.27;;
21192;SDS011;10754;51.106;7.164;2022-12-07T15:58:37;5.50;;;4.30;;
21192;SDS011;10754;51.106;7.164;2022-12-07T16:01:18;6.00;;;4.77;;
21192;SDS011;10754;51.106;7.164;2022-12-07T16:03:44;7.00;;;5.50;;
21192;SDS011;10754;51.106;7.164;2022-12-07T16:06:11;6.87;;;4.50;;
21192;SDS011;10754;51.106;7.164;2022-12-07T16:08:46;6.90;;;4.47;;
21192;SDS011;10754;51.106;7.164;2022-12-07T16:11:12;6.03;;;4.63;;
21192;SDS011;10754;51.106;7.164;2022-12-07T16:13:38;5.93;;;4.17;;
21192;SDS011;10754;51.106;7.164;2022-12-07T16:16:05;5.07;;;4.13;;
21192;SDS011;10754;51.106;7.164;2022-12-07T16:18:32;4.83;;;4.13;;
21192;SDS011;10754;51.106;7.164;2022-12-07T16:20:58;5.00;;;4.00;;
21192;SDS011;10754;51.106;7.164;2022-12-07T16:23:24;4.47;;;3.50;;
21192;SDS011;10754;51.106;7.164;2022-12-07T16:25:49;4.13;;;3.70;;
21192;SDS011;10754;51.106;7.164;2022-12-07T16:28:15;4.43;;;3.80;;
21192;SDS011;10754;51.106;7.164;2022-12-07T16:30:41;4.90;;;3.60;;
21192;SDS011;10754;51.106;7.164;2022-12-07T16:33:08;4.27;;;3.87;;
21192;SDS011;10754;51.106;7.164;2022-12-07T16:35:33;4.10;;;3.70;;
21192;SDS011;10754;51.106;7.164;2022-12-07T16:37:59;5.47;;;3.73;;